Pagrindinis puslapis
METAR-TAF:

METAR-TAF

Oro uostai :

Rerusas, Norvegija

platuma: 62-35N, ilguma: 011-21E, Aukštis: 626 m

Dabartinis oras

Ataskaita buvo paskelbta 44 minutes, ne 14:50 UTC
Vėjas 6 kt iš Pietų/Pietryčių su gūsio iki 16 kt, svyruoja nuo Rytų/Pietryčių ir Vakarų/Pietvakarių
Temperatūra -3°C
Drėgmė 63%
Slėgis 1003 hPa
Matomumas 10 km arba daugiau
nėra debesų žemiau 1500 m ir nėra kamuolinių lietaus debesų

METAR: ENRO 271450Z 16006G16KT 110V240 CAVOK M03/M09 Q1003

Laikas: 16:34 (15:34 UTC)

Prognozė

Ataskaita buvo paskelbta 4 valandos ir 34 minutes, ne 11:00 UTC
Prognozė galioja nuo 27 metu 12 UTC su 27 metu 19 UTC
Vėjas 10 kt iš Pietų
Matomumas 10 km arba daugiau
nėra debesų žemiau 1500 m ir nėra kamuolinių lietaus debesų
Laikinai
nuo 27 metu 12 UTC su 27 metu 17 UTC
Vėjas 15 kt iš Pietų/Pietvakarių su gūsio iki 25 kt

TAF: ENRO 271100Z 2712/2719 19010KT CAVOK TEMPO 2712/2717 20015G25KT

Orai ataskaitas ir orų prognozės (METAR, TAF).

turimą stotys yra geltonos ir raudonos taškus žemėlapyje.

Perkelti pele per norėdami pamatyti stoties vardą.

Tada spustelėkite, norėdami matyti oro stebėjimo ir prognozės.

Norėdami pakeisti žemėlapį: spustelėkite ant žalios mygtukų su juodo kryžiaus žemyn,; žalią mygtuką su brūkšneliu, jei norite nutolinti; arba žalių rodyklių gretimoms žemėlapius.


METAR-TAF: